sensor_id;sensor_type;location;lat;lon;timestamp;temperature;humidity
11284;DHT22;5698;47.332;11.180;2022-09-03T00:00:19;12.10;99.90
11284;DHT22;5698;47.332;11.180;2022-09-03T00:02:52;12.10;99.90
11284;DHT22;5698;47.332;11.180;2022-09-03T00:05:27;12.00;99.90
11284;DHT22;5698;47.332;11.180;2022-09-03T00:07:59;12.10;99.90
11284;DHT22;5698;47.332;11.180;2022-09-03T00:10:31;12.00;99.90
11284;DHT22;5698;47.332;11.180;2022-09-03T00:13:03;12.00;99.90
11284;DHT22;5698;47.332;11.180;2022-09-03T00:15:33;12.00;99.90
11284;DHT22;5698;47.332;11.180;2022-09-03T00:18:05;12.00;99.90
11284;DHT22;5698;47.332;11.180;2022-09-03T00:20:36;12.00;99.90
11284;DHT22;5698;47.332;11.180;2022-09-03T00:23:07;12.10;99.90
11284;DHT22;5698;47.332;11.180;2022-09-03T00:25:38;12.20;99.90
11284;DHT22;5698;47.332;11.180;2022-09-03T00:28:15;12.20;99.90
11284;DHT22;5698;47.332;11.180;2022-09-03T00:30:46;12.30;99.90
11284;DHT22;5698;47.332;11.180;2022-09-03T00:33:24;12.30;99.90
11284;DHT22;5698;47.332;11.180;2022-09-03T00:36:04;12.30;99.90
11284;DHT22;5698;47.332;11.180;2022-09-03T00:38:34;12.30;99.90
11284;DHT22;5698;47.332;11.180;2022-09-03T00:41:07;12.30;99.90
11284;DHT22;5698;47.332;11.180;2022-09-03T00:46:34;12.30;99.90
11284;DHT22;5698;47.332;11.180;2022-09-03T00:49:23;12.40;99.90
11284;DHT22;5698;47.332;11.180;2022-09-03T00:52:00;12.30;99.90
11284;DHT22;5698;47.332;11.180;2022-09-03T00:54:34;12.40;99.90
11284;DHT22;5698;47.332;11.180;2022-09-03T00:57:22;12.30;99.90
11284;DHT22;5698;47.332;11.180;2022-09-03T01:00:01;12.40;99.90
11284;DHT22;5698;47.332;11.180;2022-09-03T01:02:39;12.40;99.90
11284;DHT22;5698;47.332;11.180;2022-09-03T01:05:20;12.50;99.90
11284;DHT22;5698;47.332;11.180;2022-09-03T01:07:57;12.50;99.90
11284;DHT22;5698;47.332;11.180;2022-09-03T01:10:32;12.50;99.90
11284;DHT22;5698;47.332;11.180;2022-09-03T01:13:09;12.60;99.90
11284;DHT22;5698;47.332;11.180;2022-09-03T01:15:44;12.60;99.90
11284;DHT22;5698;47.332;11.180;2022-09-03T01:18:21;12.60;99.90
11284;DHT22;5698;47.332;11.180;2022-09-03T01:20:57;12.60;99.90
11284;DHT22;5698;47.332;11.180;2022-09-03T01:23:52;12.60;99.90
11284;DHT22;5698;47.332;11.180;2022-09-03T01:26:34;12.70;99.90
11284;DHT22;5698;47.332;11.180;2022-09-03T01:29:11;12.70;99.90
11284;DHT22;5698;47.332;11.180;2022-09-03T01:31:48;12.70;99.90
11284;DHT22;5698;47.332;11.180;2022-09-03T01:34:23;12.70;99.90
11284;DHT22;5698;47.332;11.180;2022-09-03T01:37:01;12.70;99.90
11284;DHT22;5698;47.332;11.180;2022-09-03T01:39:37;12.70;99.90
11284;DHT22;5698;47.332;11.180;2022-09-03T01:42:18;12.70;99.90
11284;DHT22;5698;47.332;11.180;2022-09-03T01:45:25;12.70;99.90
11284;DHT22;5698;47.332;11.180;2022-09-03T01:48:09;12.50;99.90
11284;DHT22;5698;47.332;11.180;2022-09-03T01:50:44;12.40;99.90
11284;DHT22;5698;47.332;11.180;2022-09-03T01:53:35;12.40;99.90
11284;DHT22;5698;47.332;11.180;2022-09-03T01:56:16;12.30;99.90
11284;DHT22;5698;47.332;11.180;2022-09-03T01:58:49;12.30;99.90
11284;DHT22;5698;47.332;11.180;2022-09-03T02:01:26;12.30;99.90
11284;DHT22;5698;47.332;11.180;2022-09-03T02:03:55;12.30;99.90
11284;DHT22;5698;47.332;11.180;2022-09-03T02:06:25;12.20;99.90
11284;DHT22;5698;47.332;11.180;2022-09-03T02:08:52;12.20;99.90
11284;DHT22;5698;47.332;11.180;2022-09-03T02:11:19;12.10;99.90
11284;DHT22;5698;47.332;11.180;2022-09-03T02:13:49;12.10;99.90
11284;DHT22;5698;47.332;11.180;2022-09-03T02:16:20;12.10;99.90
11284;DHT22;5698;47.332;11.180;2022-09-03T02:18:52;12.00;99.90
11284;DHT22;5698;47.332;11.180;2022-09-03T02:21:22;11.90;99.90
11284;DHT22;5698;47.332;11.180;2022-09-03T02:23:50;11.90;99.90
11284;DHT22;5698;47.332;11.180;2022-09-03T02:26:20;11.90;99.90
11284;DHT22;5698;47.332;11.180;2022-09-03T02:28:49;11.90;99.90
11284;DHT22;5698;47.332;11.180;2022-09-03T02:31:16;11.90;99.90
11284;DHT22;5698;47.332;11.180;2022-09-03T02:33:45;11.90;99.90
11284;DHT22;5698;47.332;11.180;2022-09-03T02:36:20;11.90;99.90
11284;DHT22;5698;47.332;11.180;2022-09-03T02:38:50;11.90;99.90
11284;DHT22;5698;47.332;11.180;2022-09-03T02:41:18;11.80;99.90
11284;DHT22;5698;47.332;11.180;2022-09-03T02:43:48;11.80;99.90
11284;DHT22;5698;47.332;11.180;2022-09-03T02:46:20;11.80;99.90
11284;DHT22;5698;47.332;11.180;2022-09-03T02:48:48;11.70;99.90
11284;DHT22;5698;47.332;11.180;2022-09-03T02:51:17;11.70;99.90
11284;DHT22;5698;47.332;11.180;2022-09-03T02:53:44;11.70;99.90
11284;DHT22;5698;47.332;11.180;2022-09-03T02:56:11;11.70;99.90
11284;DHT22;5698;47.332;11.180;2022-09-03T02:58:38;11.60;99.90
11284;DHT22;5698;47.332;11.180;2022-09-03T03:01:05;11.60;99.90
11284;DHT22;5698;47.332;11.180;2022-09-03T03:03:33;11.60;99.90
11284;DHT22;5698;47.332;11.180;2022-09-03T03:06:01;11.70;99.90
11284;DHT22;5698;47.332;11.180;2022-09-03T03:08:31;11.60;99.90
11284;DHT22;5698;47.332;11.180;2022-09-03T03:10:59;11.70;99.90
11284;DHT22;5698;47.332;11.180;2022-09-03T03:13:27;11.60;99.90
11284;DHT22;5698;47.332;11.180;2022-09-03T03:15:55;11.70;99.90
11284;DHT22;5698;47.332;11.180;2022-09-03T03:18:22;11.70;99.90
11284;DHT22;5698;47.332;11.180;2022-09-03T03:20:50;11.60;99.90
11284;DHT22;5698;47.332;11.180;2022-09-03T03:23:17;11.60;99.90
11284;DHT22;5698;47.332;11.180;2022-09-03T03:25:45;11.50;99.90
11284;DHT22;5698;47.332;11.180;2022-09-03T03:28:12;11.50;99.90
11284;DHT22;5698;47.332;11.180;2022-09-03T03:30:39;11.50;99.90
11284;DHT22;5698;47.332;11.180;2022-09-03T03:33:07;11.50;99.90
11284;DHT22;5698;47.332;11.180;2022-09-03T03:35:34;11.60;99.90
11284;DHT22;5698;47.332;11.180;2022-09-03T03:38:02;11.50;99.90
11284;DHT22;5698;47.332;11.180;2022-09-03T03:40:29;11.50;99.90
11284;DHT22;5698;47.332;11.180;2022-09-03T03:42:58;11.50;99.90
11284;DHT22;5698;47.332;11.180;2022-09-03T03:45:25;11.50;99.90
11284;DHT22;5698;47.332;11.180;2022-09-03T03:47:56;11.40;99.90
11284;DHT22;5698;47.332;11.180;2022-09-03T03:50:23;11.40;99.90
11284;DHT22;5698;47.332;11.180;2022-09-03T03:52:50;11.40;99.90
11284;DHT22;5698;47.332;11.180;2022-09-03T03:55:17;11.30;99.90
11284;DHT22;5698;47.332;11.180;2022-09-03T03:57:44;11.30;99.90
11284;DHT22;5698;47.332;11.180;2022-09-03T04:00:14;11.30;99.90
11284;DHT22;5698;47.332;11.180;2022-09-03T04:02:41;11.20;99.90
11284;DHT22;5698;47.332;11.180;2022-09-03T04:05:08;11.20;99.90
11284;DHT22;5698;47.332;11.180;2022-09-03T04:07:35;11.20;99.90
11284;DHT22;5698;47.332;11.180;2022-09-03T04:10:03;11.20;99.90
11284;DHT22;5698;47.332;11.180;2022-09-03T04:12:30;11.10;99.90
11284;DHT22;5698;47.332;11.180;2022-09-03T04:14:57;11.00;99.90
11284;DHT22;5698;47.332;11.180;2022-09-03T04:17:26;11.00;99.90
11284;DHT22;5698;47.332;11.180;2022-09-03T04:19:53;11.00;99.90
11284;DHT22;5698;47.332;11.180;2022-09-03T04:22:20;10.90;99.90
11284;DHT22;5698;47.332;11.180;2022-09-03T04:24:47;10.90;99.90
11284;DHT22;5698;47.332;11.180;2022-09-03T04:27:15;10.90;99.90
11284;DHT22;5698;47.332;11.180;2022-09-03T04:29:42;10.90;99.90
11284;DHT22;5698;47.332;11.180;2022-09-03T04:32:09;10.80;99.90
11284;DHT22;5698;47.332;11.180;2022-09-03T04:34:54;10.80;99.90
11284;DHT22;5698;47.332;11.180;2022-09-03T04:37:22;10.80;99.90
11284;DHT22;5698;47.332;11.180;2022-09-03T04:39:49;10.80;99.90
11284;DHT22;5698;47.332;11.180;2022-09-03T04:42:16;10.80;99.90
11284;DHT22;5698;47.332;11.180;2022-09-03T04:44:43;10.70;99.90
11284;DHT22;5698;47.332;11.180;2022-09-03T04:47:10;10.70;99.90
11284;DHT22;5698;47.332;11.180;2022-09-03T04:49:37;10.70;99.90
11284;DHT22;5698;47.332;11.180;2022-09-03T04:52:06;10.70;99.90
11284;DHT22;5698;47.332;11.180;2022-09-03T04:54:34;10.70;99.90
11284;DHT22;5698;47.332;11.180;2022-09-03T04:57:01;10.70;99.90
11284;DHT22;5698;47.332;11.180;2022-09-03T04:59:28;10.80;99.90
11284;DHT22;5698;47.332;11.180;2022-09-03T05:01:55;10.80;99.90
11284;DHT22;5698;47.332;11.180;2022-09-03T05:04:22;10.70;99.90
11284;DHT22;5698;47.332;11.180;2022-09-03T05:06:49;10.80;99.90
11284;DHT22;5698;47.332;11.180;2022-09-03T05:09:17;10.70;99.90
11284;DHT22;5698;47.332;11.180;2022-09-03T05:11:44;10.80;99.90
11284;DHT22;5698;47.332;11.180;2022-09-03T05:14:12;10.70;99.90
11284;DHT22;5698;47.332;11.180;2022-09-03T05:16:39;10.70;99.90
11284;DHT22;5698;47.332;11.180;2022-09-03T05:19:06;10.60;99.90
11284;DHT22;5698;47.332;11.180;2022-09-03T05:21:34;10.60;99.90
11284;DHT22;5698;47.332;11.180;2022-09-03T05:24:02;10.70;99.90
11284;DHT22;5698;47.332;11.180;2022-09-03T05:26:34;10.80;99.90
11284;DHT22;5698;47.332;11.180;2022-09-03T05:29:03;10.80;99.90
11284;DHT22;5698;47.332;11.180;2022-09-03T05:31:32;10.80;99.90
11284;DHT22;5698;47.332;11.180;2022-09-03T05:34:01;10.80;99.90
11284;DHT22;5698;47.332;11.180;2022-09-03T05:36:30;10.80;99.90
11284;DHT22;5698;47.332;11.180;2022-09-03T05:38:58;10.90;99.90
11284;DHT22;5698;47.332;11.180;2022-09-03T05:41:26;11.00;99.90
11284;DHT22;5698;47.332;11.180;2022-09-03T05:43:56;11.00;99.90
11284;DHT22;5698;47.332;11.180;2022-09-03T05:46:25;11.10;99.90
11284;DHT22;5698;47.332;11.180;2022-09-03T05:48:56;11.10;99.90
11284;DHT22;5698;47.332;11.180;2022-09-03T05:51:23;11.20;99.90
11284;DHT22;5698;47.332;11.180;2022-09-03T05:53:50;11.30;99.90
11284;DHT22;5698;47.332;11.180;2022-09-03T05:56:21;11.40;99.90
11284;DHT22;5698;47.332;11.180;2022-09-03T05:58:50;11.60;99.90
11284;DHT22;5698;47.332;11.180;2022-09-03T06:01:20;11.80;99.90
11284;DHT22;5698;47.332;11.180;2022-09-03T06:03:52;12.00;99.90
11284;DHT22;5698;47.332;11.180;2022-09-03T06:06:20;12.20;99.90
11284;DHT22;5698;47.332;11.180;2022-09-03T06:08:50;12.20;99.90
11284;DHT22;5698;47.332;11.180;2022-09-03T06:11:17;12.30;99.90
11284;DHT22;5698;47.332;11.180;2022-09-03T06:13:44;12.30;99.90
11284;DHT22;5698;47.332;11.180;2022-09-03T06:16:12;12.30;99.90
11284;DHT22;5698;47.332;11.180;2022-09-03T06:18:40;12.40;99.90
11284;DHT22;5698;47.332;11.180;2022-09-03T06:21:08;12.40;99.90
11284;DHT22;5698;47.332;11.180;2022-09-03T06:23:35;12.50;99.90
11284;DHT22;5698;47.332;11.180;2022-09-03T06:26:03;12.60;99.90
11284;DHT22;5698;47.332;11.180;2022-09-03T06:28:30;12.70;99.90
11284;DHT22;5698;47.332;11.180;2022-09-03T06:30:59;12.80;99.90
11284;DHT22;5698;47.332;11.180;2022-09-03T06:33:27;13.00;99.90
11284;DHT22;5698;47.332;11.180;2022-09-03T06:35:57;13.20;99.90
11284;DHT22;5698;47.332;11.180;2022-09-03T06:38:25;13.40;99.90
11284;DHT22;5698;47.332;11.180;2022-09-03T06:40:54;13.50;99.90
11284;DHT22;5698;47.332;11.180;2022-09-03T06:43:22;13.60;99.90
11284;DHT22;5698;47.332;11.180;2022-09-03T06:45:55;13.60;99.90
11284;DHT22;5698;47.332;11.180;2022-09-03T06:48:22;13.60;99.90
11284;DHT22;5698;47.332;11.180;2022-09-03T06:50:53;13.70;99.90
11284;DHT22;5698;47.332;11.180;2022-09-03T06:53:24;13.70;99.90
11284;DHT22;5698;47.332;11.180;2022-09-03T06:55:55;13.60;99.90
11284;DHT22;5698;47.332;11.180;2022-09-03T06:58:23;13.70;99.90
11284;DHT22;5698;47.332;11.180;2022-09-03T07:00:50;13.70;99.90
11284;DHT22;5698;47.332;11.180;2022-09-03T07:03:19;13.80;99.90
11284;DHT22;5698;47.332;11.180;2022-09-03T07:05:46;13.90;99.90
11284;DHT22;5698;47.332;11.180;2022-09-03T07:08:13;14.00;99.90
11284;DHT22;5698;47.332;11.180;2022-09-03T07:10:44;14.10;99.90
11284;DHT22;5698;47.332;11.180;2022-09-03T07:13:12;14.20;99.90
11284;DHT22;5698;47.332;11.180;2022-09-03T07:15:39;14.30;99.90
11284;DHT22;5698;47.332;11.180;2022-09-03T07:18:07;14.40;99.90
11284;DHT22;5698;47.332;11.180;2022-09-03T07:20:34;14.60;99.90
11284;DHT22;5698;47.332;11.180;2022-09-03T07:23:01;14.60;99.90
11284;DHT22;5698;47.332;11.180;2022-09-03T07:25:28;14.70;99.90
11284;DHT22;5698;47.332;11.180;2022-09-03T07:27:57;14.80;99.90
11284;DHT22;5698;47.332;11.180;2022-09-03T07:30:24;14.90;99.90
11284;DHT22;5698;47.332;11.180;2022-09-03T07:32:52;15.10;99.90
11284;DHT22;5698;47.332;11.180;2022-09-03T07:35:19;15.20;99.90
11284;DHT22;5698;47.332;11.180;2022-09-03T07:37:50;15.40;99.90
11284;DHT22;5698;47.332;11.180;2022-09-03T07:40:19;15.40;99.90
11284;DHT22;5698;47.332;11.180;2022-09-03T07:42:46;15.40;99.90
11284;DHT22;5698;47.332;11.180;2022-09-03T07:45:15;15.50;99.90
11284;DHT22;5698;47.332;11.180;2022-09-03T07:47:46;15.60;99.90
11284;DHT22;5698;47.332;11.180;2022-09-03T07:50:14;15.70;99.90
11284;DHT22;5698;47.332;11.180;2022-09-03T07:52:42;15.80;99.90
11284;DHT22;5698;47.332;11.180;2022-09-03T07:55:09;15.80;99.90
11284;DHT22;5698;47.332;11.180;2022-09-03T07:57:36;15.90;99.90
11284;DHT22;5698;47.332;11.180;2022-09-03T08:00:04;16.00;99.90
11284;DHT22;5698;47.332;11.180;2022-09-03T08:02:33;16.30;99.90
11284;DHT22;5698;47.332;11.180;2022-09-03T08:04:59;16.70;99.90
11284;DHT22;5698;47.332;11.180;2022-09-03T08:07:28;17.00;99.90
11284;DHT22;5698;47.332;11.180;2022-09-03T08:09:55;17.40;99.90
11284;DHT22;5698;47.332;11.180;2022-09-03T08:12:22;17.70;99.90
11284;DHT22;5698;47.332;11.180;2022-09-03T08:14:49;17.80;99.90
11284;DHT22;5698;47.332;11.180;2022-09-03T08:17:17;17.90;99.90
11284;DHT22;5698;47.332;11.180;2022-09-03T08:19:45;18.10;99.90
11284;DHT22;5698;47.332;11.180;2022-09-03T08:22:12;18.40;99.90
11284;DHT22;5698;47.332;11.180;2022-09-03T08:24:39;18.50;99.90
11284;DHT22;5698;47.332;11.180;2022-09-03T08:27:07;18.60;99.90
11284;DHT22;5698;47.332;11.180;2022-09-03T08:29:34;18.70;99.90
11284;DHT22;5698;47.332;11.180;2022-09-03T08:32:03;18.70;99.90
11284;DHT22;5698;47.332;11.180;2022-09-03T08:34:30;18.90;99.90
11284;DHT22;5698;47.332;11.180;2022-09-03T08:36:58;19.20;99.90
11284;DHT22;5698;47.332;11.180;2022-09-03T08:39:26;19.40;99.90
11284;DHT22;5698;47.332;11.180;2022-09-03T08:42:17;19.60;99.90
11284;DHT22;5698;47.332;11.180;2022-09-03T08:44:49;19.80;99.90
11284;DHT22;5698;47.332;11.180;2022-09-03T08:47:23;20.10;99.90
11284;DHT22;5698;47.332;11.180;2022-09-03T08:49:56;20.10;99.90
11284;DHT22;5698;47.332;11.180;2022-09-03T08:52:35;20.20;99.90
11284;DHT22;5698;47.332;11.180;2022-09-03T08:55:15;20.10;99.90
11284;DHT22;5698;47.332;11.180;2022-09-03T08:57:47;19.90;99.90
11284;DHT22;5698;47.332;11.180;2022-09-03T09:00:15;19.80;99.90
11284;DHT22;5698;47.332;11.180;2022-09-03T09:02:51;19.80;99.90
11284;DHT22;5698;47.332;11.180;2022-09-03T09:05:24;19.90;99.90
11284;DHT22;5698;47.332;11.180;2022-09-03T09:08:02;20.00;99.90
11284;DHT22;5698;47.332;11.180;2022-09-03T09:10:36;20.10;99.90
11284;DHT22;5698;47.332;11.180;2022-09-03T09:13:17;20.20;99.90
11284;DHT22;5698;47.332;11.180;2022-09-03T09:15:52;20.20;99.90
11284;DHT22;5698;47.332;11.180;2022-09-03T09:18:28;20.40;99.90
11284;DHT22;5698;47.332;11.180;2022-09-03T09:21:06;20.60;99.90
11284;DHT22;5698;47.332;11.180;2022-09-03T09:23:41;20.80;99.90
11284;DHT22;5698;47.332;11.180;2022-09-03T09:26:12;20.80;99.90
11284;DHT22;5698;47.332;11.180;2022-09-03T09:28:42;20.60;99.90
11284;DHT22;5698;47.332;11.180;2022-09-03T09:31:13;20.60;99.90
11284;DHT22;5698;47.332;11.180;2022-09-03T09:33:43;20.60;99.90
11284;DHT22;5698;47.332;11.180;2022-09-03T09:36:13;20.50;99.90
11284;DHT22;5698;47.332;11.180;2022-09-03T09:38:43;20.50;99.90
11284;DHT22;5698;47.332;11.180;2022-09-03T09:41:13;20.30;99.90
11284;DHT22;5698;47.332;11.180;2022-09-03T09:43:40;20.20;99.90
11284;DHT22;5698;47.332;11.180;2022-09-03T09:46:11;20.20;99.90
11284;DHT22;5698;47.332;11.180;2022-09-03T09:48:46;20.30;99.90
11284;DHT22;5698;47.332;11.180;2022-09-03T09:51:18;20.20;99.90
11284;DHT22;5698;47.332;11.180;2022-09-03T09:53:47;20.30;99.90
11284;DHT22;5698;47.332;11.180;2022-09-03T09:56:24;20.30;99.90
11284;DHT22;5698;47.332;11.180;2022-09-03T09:59:01;20.20;99.90
11284;DHT22;5698;47.332;11.180;2022-09-03T10:01:28;20.20;99.90
11284;DHT22;5698;47.332;11.180;2022-09-03T10:03:58;20.20;99.90
11284;DHT22;5698;47.332;11.180;2022-09-03T10:06:27;20.20;99.90
11284;DHT22;5698;47.332;11.180;2022-09-03T10:09:15;20.00;99.90
11284;DHT22;5698;47.332;11.180;2022-09-03T10:11:44;19.90;99.90
11284;DHT22;5698;47.332;11.180;2022-09-03T10:14:17;19.80;99.90
11284;DHT22;5698;47.332;11.180;2022-09-03T10:16:53;19.50;99.90
11284;DHT22;5698;47.332;11.180;2022-09-03T10:19:30;19.20;99.90
11284;DHT22;5698;47.332;11.180;2022-09-03T10:22:04;18.80;99.90
11284;DHT22;5698;47.332;11.180;2022-09-03T10:24:47;18.60;99.90
11284;DHT22;5698;47.332;11.180;2022-09-03T10:27:17;18.40;99.90
11284;DHT22;5698;47.332;11.180;2022-09-03T10:29:45;18.30;99.90
11284;DHT22;5698;47.332;11.180;2022-09-03T10:32:21;18.30;99.90
11284;DHT22;5698;47.332;11.180;2022-09-03T10:34:59;18.20;99.90
11284;DHT22;5698;47.332;11.180;2022-09-03T10:37:35;18.20;99.90
11284;DHT22;5698;47.332;11.180;2022-09-03T10:40:14;18.20;99.90
11284;DHT22;5698;47.332;11.180;2022-09-03T10:42:53;18.20;99.90
11284;DHT22;5698;47.332;11.180;2022-09-03T10:45:31;18.30;99.90
11284;DHT22;5698;47.332;11.180;2022-09-03T10:48:17;18.20;99.90
11284;DHT22;5698;47.332;11.180;2022-09-03T10:50:47;18.30;99.90
11284;DHT22;5698;47.332;11.180;2022-09-03T10:53:33;18.20;99.90
11284;DHT22;5698;47.332;11.180;2022-09-03T10:56:08;18.20;99.90
11284;DHT22;5698;47.332;11.180;2022-09-03T10:59:00;18.20;99.90
11284;DHT22;5698;47.332;11.180;2022-09-03T11:01:35;18.10;99.90
11284;DHT22;5698;47.332;11.180;2022-09-03T11:04:16;18.10;99.90
11284;DHT22;5698;47.332;11.180;2022-09-03T11:06:50;18.10;99.90
11284;DHT22;5698;47.332;11.180;2022-09-03T11:09:22;18.20;99.90
11284;DHT22;5698;47.332;11.180;2022-09-03T11:11:56;18.10;99.90
11284;DHT22;5698;47.332;11.180;2022-09-03T11:14:31;18.30;99.90
11284;DHT22;5698;47.332;11.180;2022-09-03T11:17:04;18.40;99.90
11284;DHT22;5698;47.332;11.180;2022-09-03T11:19:35;18.70;99.90
11284;DHT22;5698;47.332;11.180;2022-09-03T11:22:05;19.10;99.90
11284;DHT22;5698;47.332;11.180;2022-09-03T11:24:34;19.50;99.90
11284;DHT22;5698;47.332;11.180;2022-09-03T11:27:19;19.50;99.90
11284;DHT22;5698;47.332;11.180;2022-09-03T11:29:54;19.60;99.90
11284;DHT22;5698;47.332;11.180;2022-09-03T11:32:31;19.80;99.90
11284;DHT22;5698;47.332;11.180;2022-09-03T11:35:00;20.00;99.90
11284;DHT22;5698;47.332;11.180;2022-09-03T11:37:28;20.00;99.90
11284;DHT22;5698;47.332;11.180;2022-09-03T11:39:57;20.00;99.90
11284;DHT22;5698;47.332;11.180;2022-09-03T11:42:31;20.00;99.90
11284;DHT22;5698;47.332;11.180;2022-09-03T11:45:12;20.10;99.90
11284;DHT22;5698;47.332;11.180;2022-09-03T11:47:41;20.10;99.90
11284;DHT22;5698;47.332;11.180;2022-09-03T11:50:17;20.00;99.90
11284;DHT22;5698;47.332;11.180;2022-09-03T11:52:46;20.00;99.90
11284;DHT22;5698;47.332;11.180;2022-09-03T11:55:24;20.00;99.90
11284;DHT22;5698;47.332;11.180;2022-09-03T11:57:53;20.00;99.90
11284;DHT22;5698;47.332;11.180;2022-09-03T12:00:20;20.00;99.90
11284;DHT22;5698;47.332;11.180;2022-09-03T12:02:51;20.10;99.90
11284;DHT22;5698;47.332;11.180;2022-09-03T12:05:26;20.50;99.90
11284;DHT22;5698;47.332;11.180;2022-09-03T12:08:33;20.60;99.90
11284;DHT22;5698;47.332;11.180;2022-09-03T12:11:12;20.70;99.90
11284;DHT22;5698;47.332;11.180;2022-09-03T12:13:50;20.70;99.80
11284;DHT22;5698;47.332;11.180;2022-09-03T12:16:40;20.90;99.90
11284;DHT22;5698;47.332;11.180;2022-09-03T12:19:18;21.10;99.90
11284;DHT22;5698;47.332;11.180;2022-09-03T12:21:47;21.00;99.90
11284;DHT22;5698;47.332;11.180;2022-09-03T12:24:16;21.00;99.60
11284;DHT22;5698;47.332;11.180;2022-09-03T12:26:44;20.70;99.50
11284;DHT22;5698;47.332;11.180;2022-09-03T12:29:22;20.70;99.90
11284;DHT22;5698;47.332;11.180;2022-09-03T12:31:50;20.90;99.90
11284;DHT22;5698;47.332;11.180;2022-09-03T12:34:21;20.80;99.90
11284;DHT22;5698;47.332;11.180;2022-09-03T12:36:51;20.70;99.90
11284;DHT22;5698;47.332;11.180;2022-09-03T12:39:20;20.60;99.90
11284;DHT22;5698;47.332;11.180;2022-09-03T12:41:59;20.50;99.90
11284;DHT22;5698;47.332;11.180;2022-09-03T12:44:31;20.30;99.90
11284;DHT22;5698;47.332;11.180;2022-09-03T12:47:04;20.10;99.90
11284;DHT22;5698;47.332;11.180;2022-09-03T12:49:36;20.20;99.90
11284;DHT22;5698;47.332;11.180;2022-09-03T12:52:07;20.00;99.90
11284;DHT22;5698;47.332;11.180;2022-09-03T12:54:39;20.20;99.90
11284;DHT22;5698;47.332;11.180;2022-09-03T12:57:20;20.40;99.90
11284;DHT22;5698;47.332;11.180;2022-09-03T12:59:53;20.50;99.90
11284;DHT22;5698;47.332;11.180;2022-09-03T13:02:25;20.60;99.90
11284;DHT22;5698;47.332;11.180;2022-09-03T13:04:54;20.70;99.90
11284;DHT22;5698;47.332;11.180;2022-09-03T13:07:25;20.60;99.90
11284;DHT22;5698;47.332;11.180;2022-09-03T13:09:59;20.60;99.90
11284;DHT22;5698;47.332;11.180;2022-09-03T13:12:31;20.30;99.90
11284;DHT22;5698;47.332;11.180;2022-09-03T13:15:05;20.10;99.90
11284;DHT22;5698;47.332;11.180;2022-09-03T13:17:52;20.00;99.90
11284;DHT22;5698;47.332;11.180;2022-09-03T13:20:34;19.90;99.90
11284;DHT22;5698;47.332;11.180;2022-09-03T13:26:04;19.80;99.90
11284;DHT22;5698;47.332;11.180;2022-09-03T13:28:45;19.60;99.90
11284;DHT22;5698;47.332;11.180;2022-09-03T13:31:27;19.70;99.90
11284;DHT22;5698;47.332;11.180;2022-09-03T13:34:00;19.80;99.90
11284;DHT22;5698;47.332;11.180;2022-09-03T13:36:33;20.10;99.90
11284;DHT22;5698;47.332;11.180;2022-09-03T13:39:06;20.10;99.90
11284;DHT22;5698;47.332;11.180;2022-09-03T13:41:38;20.10;99.70
11284;DHT22;5698;47.332;11.180;2022-09-03T13:44:12;20.10;99.90
11284;DHT22;5698;47.332;11.180;2022-09-03T13:46:45;20.10;99.60
11284;DHT22;5698;47.332;11.180;2022-09-03T13:49:26;20.10;99.90
11284;DHT22;5698;47.332;11.180;2022-09-03T13:52:18;20.00;99.90
11284;DHT22;5698;47.332;11.180;2022-09-03T13:54:53;19.80;99.90
11284;DHT22;5698;47.332;11.180;2022-09-03T13:57:29;19.50;99.90
11284;DHT22;5698;47.332;11.180;2022-09-03T14:00:02;19.30;99.90
11284;DHT22;5698;47.332;11.180;2022-09-03T14:02:45;19.20;99.90
11284;DHT22;5698;47.332;11.180;2022-09-03T14:05:22;18.90;99.90
11284;DHT22;5698;47.332;11.180;2022-09-03T14:07:58;18.90;99.90
11284;DHT22;5698;47.332;11.180;2022-09-03T14:10:34;18.70;99.90
11284;DHT22;5698;47.332;11.180;2022-09-03T14:13:11;18.40;99.90
11284;DHT22;5698;47.332;11.180;2022-09-03T14:15:42;18.30;99.90
11284;DHT22;5698;47.332;11.180;2022-09-03T14:18:22;18.00;99.90
11284;DHT22;5698;47.332;11.180;2022-09-03T14:20:57;17.60;99.90
11284;DHT22;5698;47.332;11.180;2022-09-03T14:23:31;17.50;99.90
11284;DHT22;5698;47.332;11.180;2022-09-03T14:26:03;17.40;99.90
11284;DHT22;5698;47.332;11.180;2022-09-03T14:28:34;17.40;99.90
11284;DHT22;5698;47.332;11.180;2022-09-03T14:31:10;17.30;99.90
11284;DHT22;5698;47.332;11.180;2022-09-03T14:33:47;17.10;99.90
11284;DHT22;5698;47.332;11.180;2022-09-03T14:36:23;17.00;99.90
11284;DHT22;5698;47.332;11.180;2022-09-03T14:39:22;17.00;99.90
11284;DHT22;5698;47.332;11.180;2022-09-03T14:42:17;16.90;99.90
11284;DHT22;5698;47.332;11.180;2022-09-03T14:45:07;16.30;99.90
11284;DHT22;5698;47.332;11.180;2022-09-03T14:47:50;16.00;99.90
11284;DHT22;5698;47.332;11.180;2022-09-03T14:50:39;16.10;99.90
11284;DHT22;5698;47.332;11.180;2022-09-03T14:56:09;16.20;99.90
11284;DHT22;5698;47.332;11.180;2022-09-03T14:58:59;16.10;99.90
11284;DHT22;5698;47.332;11.180;2022-09-03T15:01:32;16.20;99.90
11284;DHT22;5698;47.332;11.180;2022-09-03T15:04:31;16.30;99.90
11284;DHT22;5698;47.332;11.180;2022-09-03T15:07:17;16.50;99.90
11284;DHT22;5698;47.332;11.180;2022-09-03T15:09:56;16.60;99.90
11284;DHT22;5698;47.332;11.180;2022-09-03T15:12:33;16.60;99.90
11284;DHT22;5698;47.332;11.180;2022-09-03T15:15:07;16.70;99.90
11284;DHT22;5698;47.332;11.180;2022-09-03T15:17:59;16.70;99.90
11284;DHT22;5698;47.332;11.180;2022-09-03T15:20:34;16.60;99.90
11284;DHT22;5698;47.332;11.180;2022-09-03T15:23:22;16.50;99.90
11284;DHT22;5698;47.332;11.180;2022-09-03T15:28:49;16.40;99.90
11284;DHT22;5698;47.332;11.180;2022-09-03T15:31:25;16.20;99.90
11284;DHT22;5698;47.332;11.180;2022-09-03T15:34:11;16.20;99.90
11284;DHT22;5698;47.332;11.180;2022-09-03T15:36:41;16.10;99.90
11284;DHT22;5698;47.332;11.180;2022-09-03T15:39:16;16.10;99.90
11284;DHT22;5698;47.332;11.180;2022-09-03T15:41:50;16.10;99.90
11284;DHT22;5698;47.332;11.180;2022-09-03T15:44:18;16.00;99.90
11284;DHT22;5698;47.332;11.180;2022-09-03T15:46:55;15.80;99.90
11284;DHT22;5698;47.332;11.180;2022-09-03T15:49:34;15.70;99.90
11284;DHT22;5698;47.332;11.180;2022-09-03T15:52:25;15.60;99.90
11284;DHT22;5698;47.332;11.180;2022-09-03T15:55:01;15.50;99.90
11284;DHT22;5698;47.332;11.180;2022-09-03T15:57:36;15.60;99.90
11284;DHT22;5698;47.332;11.180;2022-09-03T16:00:07;15.60;99.90
11284;DHT22;5698;47.332;11.180;2022-09-03T16:02:41;15.50;99.90
11284;DHT22;5698;47.332;11.180;2022-09-03T16:05:13;15.20;99.90
11284;DHT22;5698;47.332;11.180;2022-09-03T16:07:53;15.10;99.90
11284;DHT22;5698;47.332;11.180;2022-09-03T16:10:40;15.20;99.90
11284;DHT22;5698;47.332;11.180;2022-09-03T16:13:26;15.10;99.90
11284;DHT22;5698;47.332;11.180;2022-09-03T16:15:59;14.90;99.90